Time;durP1;ratioP1;P1;durP2;ratioP2;P2;SDS_P1;SDS_P2;PMS_P1;PMS_P2;Temp;Humidity;BMP_temperature;BMP_pressure;BME280_temperature;BME280_humidity;BME280_pressure;Samples;Min_cycle;Max_cycle;Signal;HPM_P1;HPM_P2
2022/01/12 00:00:19;;;;;;;;;;;;;;;3.11;100.00;103437.50;4896556;29;19931;-84
2022/01/12 00:09:29;;;;;;;;;;;;;;;3.15;100.00;103460.50;4841548;29;20552;-85
2022/01/12 00:12:16;;;;;;;;;;;;;;;3.14;100.00;103462.94;4857354;29;19928;-84
2022/01/12 00:15:45;;;;;;;;;;;;;;;3.16;100.00;103462.34;4862887;29;19983;-84
2022/01/12 00:22:34;;;;;;;;;;;;;;;3.23;85.47;103463.94;4872169;29;19976;-85
2022/01/12 00:26:23;;;;;;;;;;;;;;;3.26;81.58;103460.75;4879603;29;19924;-85
2022/01/12 00:39:02;;;;;;;;;;;;;;;3.23;74.09;103436.22;4949714;28;20020;-84
2022/01/12 00:42:13;;;;;;;;;;;;;;;3.20;73.19;103445.38;4975893;28;19926;-83
2022/01/12 00:44:53;;;;;;;;;;;;;;;3.14;72.19;103448.25;4979414;28;19923;-83
2022/01/12 00:48:19;;;;;;;;;;;;;;;3.14;71.55;103455.13;4950936;29;20350;-83
2022/01/12 00:51:31;;;;;;;;;;;;;;;3.17;70.79;103461.59;4967357;29;19922;-84
2022/01/12 00:54:36;;;;;;;;;;;;;;;3.18;70.31;103468.63;4954762;29;19925;-83
2022/01/12 00:57:51;;;;;;;;;;;;;;;3.19;70.00;103469.59;4958804;28;20370;-84
2022/01/12 01:04:21;;;;;;;;;;;;;;;3.13;69.50;103464.63;4973837;28;19929;-83
2022/01/12 01:10:51;;;;;;;;;;;;;;;3.17;68.96;103459.00;4974131;28;19977;-83
2022/01/12 01:14:13;;;;;;;;;;;;;;;3.15;68.86;103455.28;4997957;28;20008;-82
2022/01/12 01:25:23;;;;;;;;;;;;;;;3.16;68.72;103454.53;4980790;28;20171;-84
2022/01/12 01:26:22;;;;;;;;;;;;;;;3.03;68.36;103448.75;5007312;28;20321;-83
2022/01/12 01:29:15;;;;;;;;;;;;;;;3.00;68.21;103436.34;4998714;28;19932;-83
2022/01/12 01:32:29;;;;;;;;;;;;;;;2.96;68.13;103433.25;4995947;28;19995;-83
2022/01/12 01:35:35;;;;;;;;;;;;;;;2.99;67.96;103444.00;5014058;28;19927;-83
2022/01/12 01:38:30;;;;;;;;;;;;;;;2.94;67.80;103450.41;5001549;28;19921;-82
2022/01/12 01:41:31;;;;;;;;;;;;;;;2.97;67.63;103462.06;4995114;28;20338;-84
2022/01/12 01:53:33;;;;;;;;;;;;;;;3.03;67.21;103500.81;5015250;28;20007;-83
2022/01/12 01:56:39;;;;;;;;;;;;;;;3.06;67.12;103514.19;5011853;28;20394;-83
2022/01/12 01:59:46;;;;;;;;;;;;;;;3.08;67.04;103515.28;5014722;28;20417;-84
2022/01/12 02:02:33;;;;;;;;;;;;;;;3.15;66.96;103522.06;4995713;28;19921;-83
2022/01/12 02:05:20;;;;;;;;;;;;;;;3.11;66.96;103527.69;4995601;28;19929;-84
2022/01/12 02:08:09;;;;;;;;;;;;;;;3.11;66.89;103536.44;4998699;28;19952;-84
2022/01/12 02:10:47;;;;;;;;;;;;;;;3.13;66.84;103537.53;5014855;28;19969;-83
2022/01/12 02:13:53;;;;;;;;;;;;;;;3.15;66.79;103550.72;5001216;28;19932;-82
2022/01/12 02:17:01;;;;;;;;;;;;;;;3.13;66.73;103568.78;5013038;28;19975;-83
2022/01/12 02:36:06;;;;;;;;;;;;;;;3.33;66.44;103599.59;4995909;28;19964;-84
2022/01/12 02:57:37;;;;;;;;;;;;;;;3.44;66.17;103599.88;4940033;28;19926;-83
2022/01/12 03:00:32;;;;;;;;;;;;;;;3.43;66.15;103593.72;4999961;28;20009;-84
2022/01/12 03:03:14;;;;;;;;;;;;;;;3.44;66.11;103589.44;4996794;28;19922;-84
2022/01/12 03:06:35;;;;;;;;;;;;;;;3.45;66.09;103589.63;4980783;28;19930;-84
2022/01/12 03:09:51;;;;;;;;;;;;;;;3.41;66.06;103592.63;4975119;28;19930;-84
2022/01/12 03:12:44;;;;;;;;;;;;;;;3.48;66.01;103582.13;4982276;28;19926;-83
2022/01/12 03:15:54;;;;;;;;;;;;;;;3.49;66.00;103581.34;4992040;28;20093;-85
2022/01/12 03:19:04;;;;;;;;;;;;;;;3.46;65.99;103570.59;4990249;28;19925;-82
2022/01/12 03:21:53;;;;;;;;;;;;;;;3.49;65.96;103568.31;4991933;28;20027;-83
2022/01/12 03:24:42;;;;;;;;;;;;;;;3.49;65.93;103576.13;4969842;28;20452;-84
2022/01/12 03:27:14;;;;;;;;;;;;;;;3.50;65.92;103578.00;4992473;28;19975;-84
2022/01/12 03:29:43;;;;;;;;;;;;;;;3.58;65.89;103590.16;4998579;28;19960;-83
2022/01/12 03:32:32;;;;;;;;;;;;;;;3.53;65.90;103599.16;4998727;28;19917;-83
2022/01/12 03:35:07;;;;;;;;;;;;;;;3.56;65.86;103598.59;4995626;28;20008;-83
2022/01/12 03:37:42;;;;;;;;;;;;;;;3.53;65.88;103604.38;5019278;28;20312;-83
2022/01/12 03:40:08;;;;;;;;;;;;;;;3.56;65.85;103609.94;5056927;28;19921;-83
2022/01/12 03:42:37;;;;;;;;;;;;;;;3.58;65.85;103607.50;5056199;28;20011;-84
2022/01/12 03:45:03;;;;;;;;;;;;;;;3.61;65.82;103613.03;5056698;28;19921;-83
2022/01/12 03:47:28;;;;;;;;;;;;;;;3.57;65.83;103622.22;5039549;28;19921;-83
2022/01/12 03:49:53;;;;;;;;;;;;;;;3.59;65.81;103617.16;5038786;28;20058;-83
2022/01/12 03:52:21;;;;;;;;;;;;;;;3.58;65.77;103629.25;5038723;28;19967;-83
2022/01/12 03:54:47;;;;;;;;;;;;;;;3.59;65.74;103638.94;5046016;28;19927;-84
2022/01/12 03:57:12;;;;;;;;;;;;;;;3.62;65.68;103630.53;5040384;28;20004;-83
2022/01/12 03:59:37;;;;;;;;;;;;;;;3.62;65.67;103624.38;5038492;28;19917;-82
2022/01/12 04:02:02;;;;;;;;;;;;;;;3.60;65.66;103626.81;5038486;28;19927;-83
2022/01/12 04:04:36;;;;;;;;;;;;;;;3.60;65.65;103642.44;5018093;28;19928;-82
2022/01/12 04:09:46;;;;;;;;;;;;;;;3.62;65.57;103629.59;5056134;28;19928;-82
2022/01/12 04:12:16;;;;;;;;;;;;;;;3.58;65.54;103626.66;5021603;28;19929;-83
2022/01/12 04:14:41;;;;;;;;;;;;;;;3.65;65.50;103625.66;5038049;28;20008;-82
2022/01/12 04:17:06;;;;;;;;;;;;;;;3.65;65.50;103619.50;5038479;28;19949;-82
2022/01/12 04:19:31;;;;;;;;;;;;;;;3.64;65.49;103622.88;5038004;28;19963;-83
2022/01/12 04:23:16;;;;;;;;;;;;;;;3.70;65.48;103611.44;5038374;28;19932;-82
2022/01/12 04:24:48;;;;;;;;;;;;;;;3.74;65.44;103615.28;5055631;28;20040;-82
2022/01/12 04:27:14;;;;;;;;;;;;;;;3.73;65.47;103621.28;5037078;28;19925;-83
2022/01/12 04:29:40;;;;;;;;;;;;;;;3.73;65.47;103623.88;5055603;28;19925;-80
2022/01/12 04:32:05;;;;;;;;;;;;;;;3.69;65.47;103637.31;5037608;28;19924;-82
2022/01/12 04:34:30;;;;;;;;;;;;;;;3.72;65.45;103643.78;5036646;28;19928;-83
2022/01/12 04:36:55;;;;;;;;;;;;;;;3.68;65.44;103645.88;5037396;28;20353;-82
2022/01/12 04:39:22;;;;;;;;;;;;;;;3.68;65.39;103658.91;5037536;28;19917;-82
2022/01/12 04:41:48;;;;;;;;;;;;;;;3.72;65.33;103653.28;5036588;28;19925;-83
2022/01/12 04:44:14;;;;;;;;;;;;;;;3.71;65.30;103648.81;5038696;28;20271;-82
2022/01/12 04:46:51;;;;;;;;;;;;;;;3.68;65.28;103641.63;5037347;28;19925;-83
2022/01/12 04:49:59;;;;;;;;;;;;;;;3.69;65.26;103642.53;5039799;28;19921;-83
2022/01/12 04:52:06;;;;;;;;;;;;;;;3.59;65.26;103624.97;5046632;28;19947;-82
2022/01/12 04:54:31;;;;;;;;;;;;;;;3.42;65.30;103616.25;5037103;28;20345;-82
2022/01/12 04:56:57;;;;;;;;;;;;;;;3.33;65.34;103627.34;5036092;28;20015;-83
2022/01/12 04:59:22;;;;;;;;;;;;;;;3.32;65.33;103631.59;5036876;28;20047;-83
2022/01/12 05:01:52;;;;;;;;;;;;;;;3.32;65.31;103625.47;5054175;28;20357;-83
2022/01/12 05:07:23;;;;;;;;;;;;;;;3.36;65.26;103630.28;5054642;28;19928;-82
2022/01/12 05:12:42;;;;;;;;;;;;;;;3.36;65.24;103627.69;5036825;28;19920;-82
2022/01/12 05:15:33;;;;;;;;;;;;;;;3.32;65.15;103631.59;5041617;28;19917;-84
2022/01/12 05:17:59;;;;;;;;;;;;;;;3.31;65.13;103647.06;5037520;28;19929;-83
2022/01/12 05:20:24;;;;;;;;;;;;;;;3.30;65.13;103653.06;5035837;28;19979;-84
2022/01/12 05:22:55;;;;;;;;;;;;;;;3.24;65.14;103651.59;5036223;28;20349;-83
2022/01/12 05:25:22;;;;;;;;;;;;;;;3.22;65.14;103660.94;5036615;28;19924;-82
2022/01/12 05:27:47;;;;;;;;;;;;;;;3.12;65.16;103677.97;5017892;28;19921;-84
2022/01/12 05:30:13;;;;;;;;;;;;;;;3.12;65.14;103681.47;5032146;28;19920;-83
2022/01/12 05:32:45;;;;;;;;;;;;;;;3.16;65.11;103675.88;5037364;28;19925;-83
2022/01/12 05:35:12;;;;;;;;;;;;;;;3.20;65.11;103687.53;5037532;28;19927;-83
2022/01/12 05:37:41;;;;;;;;;;;;;;;3.24;65.07;103685.44;5036229;28;19929;-84
2022/01/12 05:40:08;;;;;;;;;;;;;;;3.27;65.08;103682.28;5037124;28;19928;-83
2022/01/12 05:42:43;;;;;;;;;;;;;;;3.30;65.07;103676.50;5038149;28;20003;-82
2022/01/12 05:45:09;;;;;;;;;;;;;;;3.31;65.07;103674.06;5037226;28;19920;-83
2022/01/12 05:50:09;;;;;;;;;;;;;;;3.37;65.04;103673.78;5054518;28;19960;-83
2022/01/12 05:52:39;;;;;;;;;;;;;;;3.41;65.04;103673.38;5036467;28;20387;-83
2022/01/12 05:55:05;;;;;;;;;;;;;;;3.39;65.04;103673.22;5017677;28;19921;-83
2022/01/12 05:57:32;;;;;;;;;;;;;;;3.41;65.07;103686.41;5031843;28;19927;-82
2022/01/12 06:00:01;;;;;;;;;;;;;;;3.40;65.07;103692.38;5020377;28;19925;-82
2022/01/12 06:02:29;;;;;;;;;;;;;;;3.34;65.07;103682.22;5037288;28;19974;-83
2022/01/12 06:04:54;;;;;;;;;;;;;;;3.25;65.06;103683.78;5057909;28;20101;-83
2022/01/12 06:07:20;;;;;;;;;;;;;;;3.20;65.06;103687.53;5040453;28;20015;-83
2022/01/12 06:09:45;;;;;;;;;;;;;;;3.23;64.99;103696.66;5058538;28;20370;-83
2022/01/12 06:12:21;;;;;;;;;;;;;;;3.27;64.97;103710.00;5039771;28;19921;-83
2022/01/12 06:14:47;;;;;;;;;;;;;;;3.26;64.95;103713.34;5040081;28;20345;-82
2022/01/12 06:17:12;;;;;;;;;;;;;;;3.27;64.95;103710.00;5039834;28;19921;-83
2022/01/12 06:19:38;;;;;;;;;;;;;;;3.19;64.92;103715.28;5057042;28;19928;-83
2022/01/12 06:22:10;;;;;;;;;;;;;;;3.19;64.92;103720.47;5039693;28;19924;-83
2022/01/12 06:24:35;;;;;;;;;;;;;;;3.12;64.92;103736.16;5040368;28;19935;-82
2022/01/12 06:27:01;;;;;;;;;;;;;;;3.11;64.88;103736.94;5039347;28;19921;-83
2022/01/12 06:29:49;;;;;;;;;;;;;;;3.15;64.83;103739.13;5039166;28;19925;-80
2022/01/12 06:32:16;;;;;;;;;;;;;;;3.17;64.77;103745.44;5034130;28;19956;-82
2022/01/12 06:34:41;;;;;;;;;;;;;;;3.07;64.76;103744.22;5026962;28;19921;-83
2022/01/12 06:37:06;;;;;;;;;;;;;;;3.07;64.73;103749.44;5064097;28;19923;-83
2022/01/12 06:39:31;;;;;;;;;;;;;;;2.93;64.74;103753.09;5039202;28;19921;-82
2022/01/12 06:41:57;;;;;;;;;;;;;;;2.88;64.72;103750.88;5039473;28;19967;-84
2022/01/12 06:44:25;;;;;;;;;;;;;;;2.84;64.69;103756.50;5038998;28;19925;-83
2022/01/12 06:46:56;;;;;;;;;;;;;;;2.81;64.65;103756.16;5038660;28;19928;-83
2022/01/12 06:49:21;;;;;;;;;;;;;;;2.88;64.59;103753.47;5039237;28;19921;-84
2022/01/12 06:51:48;;;;;;;;;;;;;;;2.90;64.56;103745.84;5056887;28;19948;-83
2022/01/12 06:54:16;;;;;;;;;;;;;;;2.98;64.54;103759.72;5037990;28;20353;-82
2022/01/12 06:56:41;;;;;;;;;;;;;;;2.95;64.51;103759.38;5037630;28;19920;-83
2022/01/12 06:59:06;;;;;;;;;;;;;;;2.83;64.52;103765.06;5038490;28;19927;-82
2022/01/12 07:01:32;;;;;;;;;;;;;;;2.83;64.52;103774.56;5037515;28;19921;-82
2022/01/12 07:03:59;;;;;;;;;;;;;;;2.80;64.52;103779.41;5056720;28;19925;-83
2022/01/12 07:06:24;;;;;;;;;;;;;;;2.75;64.51;103781.47;5038737;28;20012;-82
2022/01/12 07:08:50;;;;;;;;;;;;;;;2.76;64.50;103783.31;5038652;28;20027;-82
2022/01/12 07:11:15;;;;;;;;;;;;;;;2.79;64.48;103785.34;5038405;28;19920;-82
2022/01/12 07:13:46;;;;;;;;;;;;;;;2.80;64.46;103790.72;5037853;28;19966;-81
2022/01/12 07:16:11;;;;;;;;;;;;;;;2.80;64.44;103795.94;5038705;28;20420;-81
2022/01/12 07:18:37;;;;;;;;;;;;;;;2.82;64.42;103804.81;5038283;28;19964;-81
2022/01/12 07:21:02;;;;;;;;;;;;;;;2.88;64.40;103800.31;5037801;28;19921;-82
2022/01/12 07:23:28;;;;;;;;;;;;;;;2.93;64.35;103798.25;5038310;28;19928;-80
2022/01/12 07:25:53;;;;;;;;;;;;;;;2.98;64.32;103801.38;5037762;28;19967;-83
2022/01/12 07:28:19;;;;;;;;;;;;;;;3.04;64.30;103807.28;5038488;28;19921;-84
2022/01/12 07:30:44;;;;;;;;;;;;;;;3.05;64.29;103806.53;5046207;28;19928;-83
2022/01/12 07:33:20;;;;;;;;;;;;;;;2.92;64.30;103816.28;5038745;28;19921;-82
2022/01/12 07:35:46;;;;;;;;;;;;;;;2.73;64.33;103811.56;5038073;28;19952;-81
2022/01/12 07:38:11;;;;;;;;;;;;;;;2.75;64.30;103812.72;5038735;28;20388;-81
2022/01/12 07:40:36;;;;;;;;;;;;;;;2.77;64.28;103815.47;5037466;28;19925;-80
2022/01/12 07:43:07;;;;;;;;;;;;;;;2.82;64.28;103814.31;5055000;28;19925;-83
2022/01/12 07:45:32;;;;;;;;;;;;;;;2.76;64.26;103827.53;5018793;28;19983;-81
2022/01/12 07:47:58;;;;;;;;;;;;;;;2.67;64.27;103826.47;5026135;28;19924;-83
2022/01/12 07:50:23;;;;;;;;;;;;;;;2.60;64.27;103821.34;5037794;28;19960;-84
2022/01/12 07:52:53;;;;;;;;;;;;;;;2.59;64.28;103833.41;5037718;28;19951;-81
2022/01/12 07:55:20;;;;;;;;;;;;;;;2.54;64.28;103836.25;5037881;28;19925;-84
2022/01/12 07:57:46;;;;;;;;;;;;;;;2.51;64.29;103837.72;5055277;28;19936;-82
2022/01/12 08:00:12;;;;;;;;;;;;;;;2.42;64.28;103839.25;5037699;28;19921;-82
2022/01/12 08:02:41;;;;;;;;;;;;;;;2.38;64.30;103836.09;5037569;28;19920;-81
2022/01/12 08:05:07;;;;;;;;;;;;;;;2.41;64.27;103844.25;5037321;28;19921;-82
2022/01/12 08:07:35;;;;;;;;;;;;;;;2.45;64.26;103847.41;5037175;28;20054;-82
2022/01/12 08:10:01;;;;;;;;;;;;;;;2.48;64.24;103859.84;5037892;28;20352;-82
2022/01/12 08:12:36;;;;;;;;;;;;;;;2.41;64.26;103868.63;5036480;28;19941;-82
2022/01/12 08:15:03;;;;;;;;;;;;;;;2.46;64.23;103871.75;5055451;28;19927;-81
2022/01/12 08:17:28;;;;;;;;;;;;;;;2.38;64.25;103870.84;5037258;28;19925;-80
2022/01/12 08:19:55;;;;;;;;;;;;;;;2.43;64.26;103872.31;5021485;28;19924;-82
2022/01/12 08:22:23;;;;;;;;;;;;;;;2.59;64.22;103880.22;5039456;28;19921;-82
2022/01/12 08:24:48;;;;;;;;;;;;;;;2.52;64.24;103885.47;5037384;28;19921;-81
2022/01/12 08:27:14;;;;;;;;;;;;;;;2.57;64.26;103891.22;5037531;28;20011;-81
2022/01/12 08:29:39;;;;;;;;;;;;;;;2.58;64.24;103882.66;5037411;28;20337;-82
2022/01/12 08:32:11;;;;;;;;;;;;;;;2.55;64.25;103890.09;5037421;28;19971;-82
2022/01/12 08:34:37;;;;;;;;;;;;;;;2.47;64.24;103887.53;5035161;28;19924;-81
2022/01/12 08:37:03;;;;;;;;;;;;;;;2.48;64.24;103898.88;5037873;28;19921;-81
2022/01/12 08:39:28;;;;;;;;;;;;;;;2.51;64.23;103900.16;5037228;28;19924;-83
2022/01/12 08:41:57;;;;;;;;;;;;;;;2.57;64.22;103906.84;5037365;28;20041;-81
2022/01/12 08:44:23;;;;;;;;;;;;;;;2.63;64.19;103904.97;5037406;28;19924;-81
2022/01/12 08:46:48;;;;;;;;;;;;;;;2.64;64.18;103920.75;5037018;28;19921;-82
2022/01/12 08:49:13;;;;;;;;;;;;;;;2.68;64.17;103919.41;5020570;28;19924;-82
2022/01/12 08:51:39;;;;;;;;;;;;;;;2.69;64.18;103922.19;5054371;28;19932;-83
2022/01/12 08:54:05;;;;;;;;;;;;;;;2.69;64.18;103921.28;5037105;28;19920;-83
2022/01/12 08:56:32;;;;;;;;;;;;;;;2.76;64.17;103928.13;5052439;28;19936;-82
2022/01/12 08:58:57;;;;;;;;;;;;;;;2.87;64.15;103925.09;5036992;28;19924;-82
2022/01/12 09:01:22;;;;;;;;;;;;;;;2.97;64.13;103929.72;5036713;28;20016;-82
2022/01/12 09:03:58;;;;;;;;;;;;;;;3.03;64.11;103936.53;5054888;28;20427;-82
2022/01/12 09:06:23;;;;;;;;;;;;;;;3.14;64.11;103943.00;5036635;28;19921;-83
2022/01/12 09:08:49;;;;;;;;;;;;;;;3.32;64.09;103946.78;5035770;28;19925;-82
2022/01/12 09:11:15;;;;;;;;;;;;;;;3.26;64.10;103945.16;5036696;28;20372;-82
2022/01/12 09:13:41;;;;;;;;;;;;;;;3.34;64.11;103944.34;5036559;28;19951;-81
2022/01/12 09:16:08;;;;;;;;;;;;;;;3.46;64.09;103947.44;5037746;28;20420;-82
2022/01/12 09:18:34;;;;;;;;;;;;;;;3.48;64.10;103957.31;5039150;28;19925;-82
2022/01/12 09:20:59;;;;;;;;;;;;;;;3.50;64.10;103955.78;5036927;28;20367;-81
2022/01/12 09:23:34;;;;;;;;;;;;;;;3.63;64.11;103959.78;5054326;28;19987;-81
2022/01/12 09:25:59;;;;;;;;;;;;;;;3.75;64.11;103961.19;5036097;28;19928;-81
2022/01/12 09:28:24;;;;;;;;;;;;;;;3.62;64.15;103969.31;5036455;28;19921;-82
2022/01/12 09:30:51;;;;;;;;;;;;;;;3.53;64.18;103982.19;5036920;28;20376;-82
2022/01/12 09:33:17;;;;;;;;;;;;;;;3.60;64.19;103996.84;5054637;28;19923;-81
2022/01/12 09:35:43;;;;;;;;;;;;;;;3.57;64.19;103992.22;5037133;28;19956;-81
2022/01/12 09:38:09;;;;;;;;;;;;;;;3.62;64.19;103989.19;5040898;28;19925;-83
2022/01/12 09:40:34;;;;;;;;;;;;;;;3.72;64.18;103986.91;5040608;28;20473;-83
2022/01/12 09:43:14;;;;;;;;;;;;;;;3.66;64.20;103991.41;5058484;28;19925;-82
2022/01/12 09:45:43;;;;;;;;;;;;;;;3.67;64.22;103996.81;5040984;28;19959;-82
2022/01/12 09:48:10;;;;;;;;;;;;;;;3.69;64.22;104002.19;5040478;28;19967;-82
2022/01/12 09:50:35;;;;;;;;;;;;;;;3.77;64.21;103990.97;5040240;28;20072;-81
2022/01/12 09:53:08;;;;;;;;;;;;;;;3.64;64.27;104012.09;5024157;28;20361;-82
2022/01/12 09:55:33;;;;;;;;;;;;;;;3.69;64.27;104010.94;5040551;28;19928;-82
2022/01/12 09:57:58;;;;;;;;;;;;;;;3.82;64.27;104020.16;5040505;28;19925;-82
2022/01/12 10:00:27;;;;;;;;;;;;;;;3.86;64.28;104020.69;5040060;28;19920;-82
2022/01/12 10:03:22;;;;;;;;;;;;;;;3.93;64.30;104006.66;5040413;28;19992;-81
2022/01/12 10:05:49;;;;;;;;;;;;;;;3.84;64.35;104011.78;5039064;28;20008;-82
2022/01/12 10:08:15;;;;;;;;;;;;;;;3.81;64.37;104018.28;5040831;28;19921;-82
2022/01/12 10:10:41;;;;;;;;;;;;;;;3.99;64.38;104017.78;5041075;28;19980;-82
2022/01/12 10:13:23;;;;;;;;;;;;;;;3.98;64.42;104028.03;5059209;28;19920;-81
2022/01/12 10:15:54;;;;;;;;;;;;;;;3.88;64.47;104026.97;5040459;28;20007;-81
2022/01/12 10:18:22;;;;;;;;;;;;;;;3.97;64.47;104015.78;5039587;28;20300;-81
2022/01/12 10:20:48;;;;;;;;;;;;;;;3.97;64.49;104018.38;5040080;28;19927;-81
2022/01/12 10:23:15;;;;;;;;;;;;;;;3.87;64.56;104032.03;5039850;28;19927;-81
2022/01/12 10:25:45;;;;;;;;;;;;;;;3.87;64.59;104025.16;5039648;28;19990;-82
2022/01/12 10:28:15;;;;;;;;;;;;;;;3.93;64.59;104011.88;5039628;28;20003;-84
2022/01/12 10:30:50;;;;;;;;;;;;;;;4.09;64.61;104012.88;5052418;28;19978;-82
2022/01/12 10:33:17;;;;;;;;;;;;;;;4.27;64.58;104003.59;5039329;28;20288;-82
2022/01/12 10:35:42;;;;;;;;;;;;;;;4.24;64.65;104005.84;5056862;28;19920;-82
2022/01/12 10:38:15;;;;;;;;;;;;;;;4.11;64.77;104006.13;5039344;28;19917;-82
2022/01/12 10:40:45;;;;;;;;;;;;;;;4.14;64.83;104014.28;5038897;28;19932;-83
2022/01/12 10:43:29;;;;;;;;;;;;;;;4.00;64.94;104005.69;5057011;28;19982;-83
2022/01/12 10:45:55;;;;;;;;;;;;;;;4.05;65.01;104013.25;5038937;28;19990;-82
2022/01/12 10:48:20;;;;;;;;;;;;;;;4.00;65.09;104008.31;5056135;28;20428;-82
2022/01/12 10:50:56;;;;;;;;;;;;;;;4.14;65.13;104010.78;5039187;28;20268;-83
2022/01/12 10:53:27;;;;;;;;;;;;;;;4.26;65.16;104013.84;5056356;28;19927;-85
2022/01/12 10:56:03;;;;;;;;;;;;;;;4.42;65.21;104008.66;5038926;28;19921;-82
2022/01/12 10:58:28;;;;;;;;;;;;;;;4.43;65.32;104026.19;5039216;28;19921;-85
2022/01/12 11:00:56;;;;;;;;;;;;;;;4.35;65.48;104032.19;5038601;28;19928;-85
2022/01/12 11:03:22;;;;;;;;;;;;;;;4.47;65.64;104034.53;5022366;28;19925;-83
2022/01/12 11:05:48;;;;;;;;;;;;;;;4.66;65.86;104034.88;5039108;28;19925;-83
2022/01/12 11:08:14;;;;;;;;;;;;;;;4.50;66.22;104023.47;5038612;28;20313;-82
2022/01/12 11:10:40;;;;;;;;;;;;;;;4.75;66.40;104020.97;5040861;28;19932;-80
2022/01/12 11:13:14;;;;;;;;;;;;;;;4.87;66.81;104026.63;5042641;28;20300;-83
2022/01/12 11:15:40;;;;;;;;;;;;;;;4.80;67.68;104025.00;5059457;28;20019;-82
2022/01/12 11:18:07;;;;;;;;;;;;;;;4.80;69.00;104019.78;5041111;28;19948;-84
2022/01/12 11:20:33;;;;;;;;;;;;;;;4.82;70.74;104013.06;5041578;28;19956;-81
2022/01/12 11:23:05;;;;;;;;;;;;;;;4.90;73.24;104001.78;5040047;28;19952;-82
2022/01/12 11:25:33;;;;;;;;;;;;;;;4.95;76.70;103994.44;5039190;28;19928;-83
2022/01/12 11:28:15;;;;;;;;;;;;;;;4.97;79.70;103992.91;5038495;28;19920;-80
2022/01/12 11:30:44;;;;;;;;;;;;;;;5.01;81.81;103993.41;5038598;28;19920;-81
2022/01/12 11:33:15;;;;;;;;;;;;;;;5.15;83.72;103991.38;5038651;28;19963;-80
2022/01/12 11:35:42;;;;;;;;;;;;;;;5.07;87.66;103980.09;5038548;28;20070;-82
2022/01/12 11:38:08;;;;;;;;;;;;;;;5.13;90.80;103983.38;5056257;28;19955;-80
2022/01/12 11:40:37;;;;;;;;;;;;;;;5.04;94.23;103979.78;5042402;28;19966;-81
2022/01/12 11:43:02;;;;;;;;;;;;;;;4.89;98.72;103978.09;5059985;28;19921;-82
2022/01/12 11:45:28;;;;;;;;;;;;;;;4.91;100.00;103963.53;5049255;28;19923;-83
2022/01/12 11:47:53;;;;;;;;;;;;;;;5.06;100.00;103959.97;5051163;28;19921;-83
2022/01/12 11:50:18;;;;;;;;;;;;;;;5.00;100.00;103952.41;5051163;28;19984;-81
2022/01/12 11:52:48;;;;;;;;;;;;;;;5.08;100.00;103955.84;5042043;28;19936;-84
2022/01/12 11:55:15;;;;;;;;;;;;;;;5.12;100.00;103952.78;5044737;28;19948;-84
2022/01/12 11:57:42;;;;;;;;;;;;;;;5.16;100.00;103961.91;5038486;28;20035;-79
2022/01/12 12:00:12;;;;;;;;;;;;;;;5.01;100.00;103964.69;5037793;28;19920;-80
2022/01/12 12:02:49;;;;;;;;;;;;;;;4.98;100.00;103959.13;5037995;28;20380;-80
2022/01/12 12:05:41;;;;;;;;;;;;;;;4.74;100.00;103952.19;5021787;28;19990;-81
2022/01/12 12:08:06;;;;;;;;;;;;;;;4.89;100.00;103946.78;5032803;28;19921;-81
2022/01/12 12:10:35;;;;;;;;;;;;;;;4.82;100.00;103950.41;5017646;28;20353;-81
2022/01/12 12:13:16;;;;;;;;;;;;;;;4.93;100.00;103955.09;5018798;28;19924;-84
2022/01/12 12:15:42;;;;;;;;;;;;;;;5.00;100.00;103952.41;5035998;28;19921;-81
2022/01/12 12:18:09;;;;;;;;;;;;;;;5.07;100.00;103942.63;5019140;28;20337;-83
2022/01/12 12:20:36;;;;;;;;;;;;;;;5.15;100.00;103932.22;5018792;28;19921;-81
2022/01/12 12:23:03;;;;;;;;;;;;;;;5.28;100.00;103939.66;5036139;28;19971;-82
2022/01/12 12:25:29;;;;;;;;;;;;;;;5.26;100.00;103940.28;5016653;28;19921;-79
2022/01/12 12:27:55;;;;;;;;;;;;;;;5.43;100.00;103931.63;5017531;28;20297;-81
2022/01/12 12:30:22;;;;;;;;;;;;;;;5.27;100.00;103916.03;5017566;28;19925;-81
2022/01/12 12:32:55;;;;;;;;;;;;;;;5.34;100.00;103919.41;5017261;28;19932;-80
2022/01/12 12:35:31;;;;;;;;;;;;;;;5.36;100.00;103917.91;5017180;28;19925;-80
2022/01/12 12:37:58;;;;;;;;;;;;;;;5.39;100.00;103918.25;5011735;28;19929;-80
2022/01/12 12:40:28;;;;;;;;;;;;;;;5.41;100.00;103905.34;5017859;28;19928;-80
2022/01/12 12:43:22;;;;;;;;;;;;;;;5.32;100.00;103901.75;5016970;28;19921;-80
2022/01/12 12:45:52;;;;;;;;;;;;;;;5.39;100.00;103896.38;5019758;28;19921;-79
2022/01/12 12:48:18;;;;;;;;;;;;;;;5.35;100.00;103895.16;5017300;28;19921;-80
2022/01/12 12:50:44;;;;;;;;;;;;;;;5.35;100.00;103897.75;5017171;28;20392;-80
2022/01/12 12:53:11;;;;;;;;;;;;;;;5.33;100.00;103890.50;5017812;28;19929;-79
2022/01/12 12:55:38;;;;;;;;;;;;;;;5.42;100.00;103890.56;5017229;28;19921;-80
2022/01/12 12:58:04;;;;;;;;;;;;;;;5.52;100.00;103889.09;5017689;28;19921;-80
2022/01/12 13:00:30;;;;;;;;;;;;;;;5.50;100.00;103885.41;5017128;28;20329;-84
2022/01/12 13:03:03;;;;;;;;;;;;;;;5.30;100.00;103896.38;5034720;28;20000;-82
2022/01/12 13:05:33;;;;;;;;;;;;;;;5.30;100.00;103893.75;5016771;28;19948;-81
2022/01/12 13:07:59;;;;;;;;;;;;;;;5.40;100.00;103896.56;5017280;28;19925;-82
2022/01/12 13:10:25;;;;;;;;;;;;;;;5.46;100.00;103898.91;5018616;28;19928;-81
2022/01/12 13:12:52;;;;;;;;;;;;;;;5.44;100.00;103899.50;5020857;28;19921;-81
2022/01/12 13:15:19;;;;;;;;;;;;;;;5.45;100.00;103898.75;5038601;28;19928;-82
2022/01/12 13:17:44;;;;;;;;;;;;;;;5.48;100.00;103896.44;5021121;28;19930;-83
2022/01/12 13:23:12;;;;;;;;;;;;;;;5.21;100.00;103887.53;5039002;28;19921;-82
2022/01/12 13:25:38;;;;;;;;;;;;;;;5.37;100.00;103880.53;5020658;28;20317;-82
2022/01/12 13:28:03;;;;;;;;;;;;;;;5.30;100.00;103883.28;5038457;28;20060;-82
2022/01/12 13:30:30;;;;;;;;;;;;;;;5.31;100.00;103882.50;5020499;28;19928;-83
2022/01/12 13:32:59;;;;;;;;;;;;;;;5.31;100.00;103874.66;5020759;28;19979;-83
2022/01/12 13:35:32;;;;;;;;;;;;;;;5.34;100.00;103876.69;5020765;28;19917;-82
2022/01/12 13:37:59;;;;;;;;;;;;;;;5.43;100.00;103877.66;5020469;28;20546;-82
2022/01/12 13:40:31;;;;;;;;;;;;;;;5.45;100.00;103870.00;5019689;28;19917;-83
2022/01/12 13:42:59;;;;;;;;;;;;;;;5.27;100.00;103882.97;5020829;28;19952;-82
2022/01/12 13:45:37;;;;;;;;;;;;;;;5.24;100.00;103880.03;5038835;28;19917;-82
2022/01/12 13:48:11;;;;;;;;;;;;;;;5.38;100.00;103869.34;5005208;28;19925;-82
2022/01/12 13:50:36;;;;;;;;;;;;;;;5.45;100.00;103873.50;5005510;28;20015;-82
2022/01/12 13:53:08;;;;;;;;;;;;;;;5.63;100.00;103866.69;5020920;28;20344;-84
2022/01/12 13:55:34;;;;;;;;;;;;;;;5.64;100.00;103868.56;5020447;28;19921;-82
2022/01/12 13:58:06;;;;;;;;;;;;;;;5.54;100.00;103869.25;5020624;28;20382;-82
2022/01/12 14:00:32;;;;;;;;;;;;;;;5.69;100.00;103862.09;5019934;28;19921;-81
2022/01/12 14:03:01;;;;;;;;;;;;;;;5.72;100.00;103862.41;5020519;28;19932;-82
2022/01/12 14:05:36;;;;;;;;;;;;;;;5.61;100.00;103860.38;5020642;28;19960;-80
2022/01/12 14:08:10;;;;;;;;;;;;;;;5.54;100.00;103852.66;5020671;28;19952;-81
2022/01/12 14:10:36;;;;;;;;;;;;;;;5.66;100.00;103855.63;5020650;28;20257;-81
2022/01/12 14:13:04;;;;;;;;;;;;;;;5.74;100.00;103853.03;5019920;28;19917;-81
2022/01/12 14:15:33;;;;;;;;;;;;;;;5.70;100.00;103848.28;5020236;28;19925;-82
2022/01/12 14:18:52;;;;;;;;;;;;;;;5.59;100.00;103856.66;4976693;28;19922;-80
2022/01/12 14:31:58;;;;;;;;;;;;;;;5.51;100.00;103848.03;4862550;29;20440;-83
2022/01/12 14:35:17;;;;;;;;;;;;;;;5.49;100.00;103856.50;4862605;29;19931;-80
2022/01/12 14:41:31;;;;;;;;;;;;;;;5.52;100.00;103843.75;4881294;29;19976;-82
2022/01/12 14:50:34;;;;;;;;;;;;;;;5.30;100.00;103844.09;4936637;29;19970;-81
2022/01/12 14:53:02;;;;;;;;;;;;;;;5.31;100.00;103840.69;4921336;29;20029;-80
2022/01/12 14:55:28;;;;;;;;;;;;;;;5.36;100.00;103852.59;4921386;29;19919;-81
2022/01/12 14:57:54;;;;;;;;;;;;;;;5.34;100.00;103843.63;4921476;29;19923;-82
2022/01/12 15:00:26;;;;;;;;;;;;;;;5.35;100.00;103837.66;4921254;29;19933;-82
2022/01/12 15:03:01;;;;;;;;;;;;;;;5.34;100.00;103824.44;4921442;29;19919;-80
2022/01/12 15:05:27;;;;;;;;;;;;;;;5.29;100.00;103831.78;4921032;29;19959;-81
2022/01/12 15:07:54;;;;;;;;;;;;;;;5.15;100.00;103837.25;4938273;29;20379;-80